createdAt,value
2018-12-12T00:02:22.953Z,52.90
2018-12-12T00:04:55.241Z,52.83
2018-12-12T00:07:25.460Z,51.93
2018-12-12T00:09:56.603Z,63.60
2018-12-12T00:12:26.758Z,56.93
2018-12-12T00:14:56.900Z,54.57
2018-12-12T00:17:27.064Z,43.57
2018-12-12T00:19:58.327Z,55.07
2018-12-12T00:22:28.443Z,55.70
2018-12-12T00:24:58.584Z,49.00
2018-12-12T00:27:28.741Z,48.87
2018-12-12T00:29:58.949Z,49.90
2018-12-12T00:32:29.086Z,48.20
2018-12-12T00:34:59.237Z,47.40
2018-12-12T00:37:29.353Z,45.93
2018-12-12T00:40:00.062Z,47.77
2018-12-12T00:42:30.181Z,46.40
2018-12-12T00:45:00.469Z,55.97
2018-12-12T00:47:30.614Z,56.40
2018-12-12T00:50:00.756Z,53.77
2018-12-12T00:52:30.881Z,55.50
2018-12-12T00:55:01.039Z,60.33
2018-12-12T00:57:31.630Z,59.87
2018-12-12T01:00:01.774Z,60.50
2018-12-12T01:02:33.136Z,66.53
2018-12-12T01:05:03.331Z,74.87
2018-12-12T01:07:33.431Z,69.97
2018-12-12T01:10:03.623Z,76.17
2018-12-12T01:12:33.763Z,79.03
2018-12-12T01:15:03.892Z,83.27
2018-12-12T01:17:34.048Z,77.90
2018-12-12T01:20:04.793Z,82.83
2018-12-12T01:22:35.007Z,82.00
2018-12-12T01:25:05.220Z,87.17
2018-12-12T01:27:35.346Z,93.27
2018-12-12T01:30:05.602Z,93.13
2018-12-12T01:32:35.694Z,91.77
2018-12-12T01:35:06.238Z,97.87
2018-12-12T01:37:36.342Z,94.67
2018-12-12T01:40:06.839Z,98.17
2018-12-12T01:42:37.010Z,99.27
2018-12-12T01:45:07.211Z,114.77
2018-12-12T01:47:37.303Z,112.00
2018-12-12T01:50:07.455Z,102.37
2018-12-12T01:52:37.596Z,117.30
2018-12-12T01:55:07.756Z,105.10
2018-12-12T01:57:37.889Z,108.83
2018-12-12T02:00:08.027Z,106.33
2018-12-12T02:02:38.220Z,110.03
2018-12-12T02:05:08.361Z,110.07
2018-12-12T02:07:38.557Z,125.37
2018-12-12T02:10:08.822Z,108.53
2018-12-12T02:12:39.001Z,116.57
2018-12-12T02:15:09.066Z,112.77
2018-12-12T02:17:39.186Z,117.60
2018-12-12T02:20:09.341Z,110.07
2018-12-12T02:22:39.514Z,134.93
2018-12-12T02:25:09.691Z,114.27
2018-12-12T02:27:39.839Z,116.13
2018-12-12T02:30:09.980Z,118.97
2018-12-12T02:32:40.179Z,115.20
2018-12-12T02:35:10.315Z,111.43
2018-12-12T02:37:40.384Z,105.80
2018-12-12T02:40:10.531Z,92.17
2018-12-12T02:42:40.630Z,93.47
2018-12-12T02:45:10.789Z,92.40
2018-12-12T02:47:41.018Z,95.20
2018-12-12T02:50:11.136Z,87.53
2018-12-12T02:52:41.219Z,90.17
2018-12-12T02:55:11.308Z,90.67
2018-12-12T02:57:41.549Z,96.33
2018-12-12T03:00:11.711Z,93.67
2018-12-12T03:02:44.014Z,101.37
2018-12-12T03:05:14.262Z,89.97
2018-12-12T03:07:44.397Z,100.47
2018-12-12T03:10:14.629Z,95.83
2018-12-12T03:12:51.443Z,99.57
2018-12-12T03:15:21.694Z,110.57
2018-12-12T03:17:51.838Z,105.93
2018-12-12T03:20:22.088Z,101.80
2018-12-12T03:22:52.224Z,95.93
2018-12-12T03:25:22.587Z,95.87
2018-12-12T03:27:52.795Z,109.50
2018-12-12T03:30:22.949Z,113.93
2018-12-12T03:32:53.033Z,101.07
2018-12-12T03:35:23.177Z,94.87
2018-12-12T03:37:53.293Z,101.17
2018-12-12T03:40:23.937Z,89.00
2018-12-12T03:42:54.547Z,97.30
2018-12-12T03:45:24.682Z,90.93
2018-12-12T03:47:54.886Z,90.37
2018-12-12T03:50:25.038Z,91.60
2018-12-12T03:52:55.214Z,84.17
2018-12-12T03:55:25.454Z,84.13
2018-12-12T03:57:55.670Z,84.87
2018-12-12T04:00:25.837Z,88.73
2018-12-12T04:02:55.944Z,95.57
2018-12-12T04:05:27.168Z,81.10
2018-12-12T04:07:57.284Z,90.83
2018-12-12T04:10:27.399Z,88.17
2018-12-12T04:12:57.617Z,82.93
2018-12-12T04:15:27.725Z,107.87
2018-12-12T04:17:57.864Z,144.00
2018-12-12T04:20:28.037Z,261.47
2018-12-12T04:22:59.558Z,204.10
2018-12-12T04:25:30.448Z,140.97
2018-12-12T04:28:00.696Z,128.43
2018-12-12T04:30:30.818Z,109.23
2018-12-12T04:33:00.946Z,98.10
2018-12-12T04:35:31.104Z,112.60
2018-12-12T04:38:01.226Z,113.60
2018-12-12T04:40:31.402Z,84.33
2018-12-12T04:43:01.514Z,80.30
2018-12-12T04:45:31.646Z,108.33
2018-12-12T04:48:01.778Z,112.30
2018-12-12T04:50:31.954Z,180.30
2018-12-12T04:53:02.050Z,193.50
2018-12-12T04:55:32.298Z,106.80
2018-12-12T04:58:02.405Z,87.97
2018-12-12T05:00:32.510Z,75.67
2018-12-12T05:03:02.772Z,89.17
2018-12-12T05:05:41.911Z,85.50
2018-12-12T05:08:12.064Z,76.50
2018-12-12T05:10:42.169Z,87.73
2018-12-12T05:13:12.341Z,78.37
2018-12-12T05:15:42.441Z,76.93
2018-12-12T05:18:12.635Z,79.57
2018-12-12T05:20:42.753Z,67.17
2018-12-12T05:23:12.821Z,75.37
2018-12-12T05:25:42.961Z,73.50
2018-12-12T05:28:13.041Z,77.83
2018-12-12T05:30:43.202Z,77.40
2018-12-12T05:33:13.349Z,75.63
2018-12-12T05:35:43.450Z,77.43
2018-12-12T05:38:13.538Z,77.03
2018-12-12T05:40:45.730Z,82.10
2018-12-12T05:43:15.922Z,88.67
2018-12-12T05:45:46.202Z,93.07
2018-12-12T05:48:17.931Z,88.40
2018-12-12T05:50:48.511Z,100.63
2018-12-12T05:53:18.926Z,94.77
2018-12-12T05:55:49.059Z,91.40
2018-12-12T05:58:19.134Z,89.97
2018-12-12T06:00:49.312Z,85.17
2018-12-12T06:03:19.405Z,88.00
2018-12-12T06:05:49.515Z,101.33
2018-12-12T06:08:19.600Z,78.57
2018-12-12T06:10:49.757Z,79.43
2018-12-12T06:13:19.957Z,81.33
2018-12-12T06:15:50.019Z,78.97
2018-12-12T06:18:20.073Z,81.40
2018-12-12T06:20:50.131Z,79.33
2018-12-12T06:23:20.209Z,74.60
2018-12-12T06:25:50.417Z,76.80
2018-12-12T06:28:20.465Z,85.03
2018-12-12T06:30:50.546Z,82.27
2018-12-12T06:33:20.638Z,85.73
2018-12-12T06:35:50.803Z,83.57
2018-12-12T06:38:20.853Z,85.57
2018-12-12T06:40:51.331Z,83.67
2018-12-12T06:43:21.398Z,83.43
2018-12-12T06:45:51.499Z,81.63
2018-12-12T06:48:21.566Z,90.70
2018-12-12T06:50:51.668Z,86.63
2018-12-12T06:53:21.724Z,89.43
2018-12-12T06:55:51.813Z,111.83
2018-12-12T06:58:22.113Z,101.80
2018-12-12T07:00:52.352Z,115.30
2018-12-12T07:03:22.471Z,122.30
2018-12-12T07:05:52.520Z,129.90
2018-12-12T07:08:22.628Z,139.83
2018-12-12T07:10:52.718Z,140.23
2018-12-12T07:13:22.784Z,138.20
2018-12-12T07:15:52.909Z,134.10
2018-12-12T07:18:23.105Z,140.40
2018-12-12T07:20:53.254Z,135.60
2018-12-12T07:23:23.316Z,143.63
2018-12-12T07:25:53.390Z,135.37
2018-12-12T07:28:23.454Z,130.07
2018-12-12T07:30:53.507Z,120.83
2018-12-12T07:33:23.595Z,120.83
2018-12-12T07:35:59.321Z,124.63
2018-12-12T07:38:25.844Z,122.60
2018-12-12T07:40:56.043Z,112.53
2018-12-12T07:43:28.183Z,110.07
2018-12-12T07:46:03.883Z,114.37
2018-12-12T07:48:35.994Z,95.93
2018-12-12T07:51:27.009Z,105.40
2018-12-12T07:54:02.556Z,115.27
2018-12-12T07:56:32.701Z,111.80
2018-12-12T07:59:02.770Z,119.70
2018-12-12T08:01:32.864Z,111.40
2018-12-12T08:04:02.997Z,117.10
2018-12-12T08:06:33.085Z,103.73
2018-12-12T08:09:04.425Z,107.53
2018-12-12T08:11:34.809Z,102.77
2018-12-12T08:14:04.904Z,108.10
2018-12-12T08:16:34.963Z,96.70
2018-12-12T08:19:05.048Z,108.17
2018-12-12T08:21:36.187Z,109.67
2018-12-12T08:24:06.291Z,120.27
2018-12-12T08:26:37.634Z,130.63
2018-12-12T08:29:07.730Z,105.87
2018-12-12T08:31:38.155Z,115.93
2018-12-12T08:34:08.314Z,102.97
2018-12-12T08:36:38.366Z,100.97
2018-12-12T08:39:08.784Z,105.07
2018-12-12T08:41:40.912Z,100.27
2018-12-12T08:44:11.483Z,100.60
2018-12-12T08:46:41.539Z,92.63
2018-12-12T08:49:12.545Z,94.43
2018-12-12T08:51:43.144Z,87.33
2018-12-12T08:54:13.217Z,99.07
2018-12-12T08:56:43.806Z,93.73
2018-12-12T08:59:14.858Z,82.30
2018-12-12T09:01:45.459Z,103.87
2018-12-12T09:04:15.534Z,109.23
2018-12-12T09:06:46.620Z,111.50
2018-12-12T09:09:17.714Z,106.43
2018-12-12T09:11:47.794Z,105.23
2018-12-12T09:14:17.849Z,91.07
2018-12-12T09:16:48.986Z,88.57
2018-12-12T09:19:19.730Z,99.43
2018-12-12T09:21:49.886Z,86.13
2018-12-12T09:24:20.097Z,86.53
2018-12-12T09:26:50.369Z,88.97
2018-12-12T09:29:20.468Z,96.70
2018-12-12T09:31:52.637Z,87.63
2018-12-12T09:34:24.773Z,88.27
2018-12-12T09:36:56.988Z,81.37
2018-12-12T09:39:27.056Z,91.87
2018-12-12T09:41:57.193Z,107.87
2018-12-12T09:44:27.286Z,107.73
2018-12-12T09:46:57.477Z,93.40
2018-12-12T09:49:27.729Z,91.70
2018-12-12T09:51:59.858Z,92.33
2018-12-12T09:54:32.017Z,87.83
2018-12-12T09:57:02.115Z,90.30
2018-12-12T09:59:32.265Z,78.40
2018-12-12T10:02:02.419Z,78.90
2018-12-12T10:04:32.607Z,72.00
2018-12-12T10:07:02.743Z,86.07
2018-12-12T10:09:32.818Z,90.37
2018-12-12T10:12:02.896Z,67.93
2018-12-12T10:14:33.035Z,72.40
2018-12-12T10:17:04.430Z,69.67
2018-12-12T10:19:34.599Z,74.13
2018-12-12T10:22:04.963Z,88.17
2018-12-12T10:24:35.360Z,89.73
2018-12-12T10:27:05.479Z,81.37
2018-12-12T10:29:35.533Z,69.13
2018-12-12T10:32:05.609Z,65.67
2018-12-12T10:37:10.927Z,61.90
2018-12-12T10:39:41.367Z,52.30
2018-12-12T10:42:11.417Z,62.17
2018-12-12T10:44:41.456Z,61.97
2018-12-12T10:47:11.502Z,54.47
2018-12-12T10:49:41.618Z,59.37
2018-12-12T10:52:11.830Z,69.97
2018-12-12T10:54:41.888Z,67.70
2018-12-12T10:57:11.910Z,86.77
2018-12-12T10:59:42.006Z,55.63
2018-12-12T11:02:17.308Z,63.90
2018-12-12T11:04:47.413Z,59.83
2018-12-12T11:07:17.575Z,73.17
2018-12-12T11:09:47.614Z,75.37
2018-12-12T11:12:17.760Z,82.30
2018-12-12T11:14:47.929Z,77.47
2018-12-12T11:17:18.056Z,86.20
2018-12-12T11:19:48.167Z,81.83
2018-12-12T11:22:18.286Z,104.80
2018-12-12T11:24:48.318Z,92.60
2018-12-12T11:27:18.440Z,88.10
2018-12-12T11:29:48.483Z,87.03
2018-12-12T11:32:18.655Z,98.90
2018-12-12T11:34:48.690Z,94.40
2018-12-12T11:37:18.747Z,94.67
2018-12-12T11:39:49.959Z,81.43
2018-12-12T11:42:20.084Z,84.87
2018-12-12T11:44:50.141Z,79.77
2018-12-12T11:47:20.216Z,76.70
2018-12-12T11:49:50.353Z,83.53
2018-12-12T11:52:20.499Z,90.10
2018-12-12T11:54:51.710Z,81.97
2018-12-12T11:57:22.390Z,72.00
2018-12-12T11:59:52.550Z,71.10
2018-12-12T12:02:22.595Z,74.30
2018-12-12T12:04:52.662Z,79.90
2018-12-12T12:07:22.906Z,72.13
2018-12-12T12:09:53.054Z,79.13
2018-12-12T12:12:23.087Z,74.07
2018-12-12T12:14:55.310Z,75.33
2018-12-12T12:17:25.390Z,94.23
2018-12-12T12:19:55.570Z,76.07
2018-12-12T12:22:25.690Z,83.47
2018-12-12T12:24:55.770Z,118.20
2018-12-12T12:27:25.975Z,119.63
2018-12-12T12:29:56.022Z,91.10
2018-12-12T12:32:26.107Z,79.40
2018-12-12T12:34:56.195Z,94.77
2018-12-12T12:37:26.398Z,82.30
2018-12-12T12:39:56.559Z,77.80
2018-12-12T12:42:26.603Z,85.93
2018-12-12T12:44:56.692Z,128.23
2018-12-12T12:47:26.777Z,148.17
2018-12-12T12:49:56.925Z,92.20
2018-12-12T12:52:27.080Z,95.10
2018-12-12T12:54:57.276Z,73.40
2018-12-12T12:57:27.455Z,70.43
2018-12-12T12:59:57.616Z,61.80
2018-12-12T13:02:27.744Z,74.37
2018-12-12T13:04:57.869Z,93.20
2018-12-12T13:07:28.022Z,94.87
2018-12-12T13:09:58.198Z,102.63
2018-12-12T13:12:28.318Z,107.40
2018-12-12T13:14:58.481Z,91.70
2018-12-12T13:17:28.609Z,123.27
2018-12-12T13:20:00.018Z,91.80
2018-12-12T13:22:30.390Z,114.40
2018-12-12T13:25:00.569Z,118.83
2018-12-12T13:27:30.765Z,109.33
2018-12-12T13:30:00.891Z,123.37
2018-12-12T13:32:31.040Z,108.90
2018-12-12T13:35:01.125Z,111.53
2018-12-12T13:37:31.270Z,119.90
2018-12-12T13:40:01.434Z,120.73
2018-12-12T13:42:31.761Z,122.00
2018-12-12T13:45:01.885Z,133.13
2018-12-12T13:47:33.194Z,118.50
2018-12-12T13:50:03.329Z,117.00
2018-12-12T13:52:33.718Z,111.37
2018-12-12T13:55:03.976Z,105.90
2018-12-12T13:57:34.330Z,105.13
2018-12-12T14:00:11.920Z,105.37
2018-12-12T14:02:45.135Z,107.57
2018-12-12T14:05:15.437Z,116.27
2018-12-12T14:07:46.531Z,123.07
2018-12-12T14:10:19.254Z,142.60
2018-12-12T14:12:49.770Z,97.23
2018-12-12T14:15:20.892Z,183.90
2018-12-12T14:17:51.251Z,177.57
2018-12-12T14:20:21.380Z,171.40
2018-12-12T14:22:51.603Z,183.63
2018-12-12T14:25:21.825Z,166.27
2018-12-12T14:27:52.978Z,168.03
2018-12-12T14:30:23.377Z,132.70
2018-12-12T14:32:53.676Z,126.73
2018-12-12T14:35:23.853Z,121.43
2018-12-12T14:37:54.202Z,126.60
2018-12-12T14:40:24.382Z,136.77
2018-12-12T14:42:54.549Z,117.90
2018-12-12T14:45:24.789Z,110.50
2018-12-12T14:47:55.145Z,103.77
2018-12-12T14:50:25.468Z,98.83
2018-12-12T14:52:55.745Z,93.53
2018-12-12T14:55:25.923Z,94.30
2018-12-12T14:57:56.137Z,99.43
2018-12-12T15:00:26.503Z,96.77
2018-12-12T15:02:57.473Z,91.93
2018-12-12T15:05:27.760Z,122.93
2018-12-12T15:07:57.892Z,126.43
2018-12-12T15:10:28.090Z,126.70
2018-12-12T15:12:58.488Z,157.43
2018-12-12T15:15:28.768Z,175.70
2018-12-12T15:17:59.118Z,196.70
2018-12-12T15:20:30.322Z,224.10
2018-12-12T15:23:00.488Z,208.33
2018-12-12T15:25:30.696Z,231.73
2018-12-12T15:28:02.250Z,246.63
2018-12-12T15:30:32.413Z,233.10
2018-12-12T15:33:02.743Z,220.80
2018-12-12T15:35:32.821Z,175.17
2018-12-12T15:38:02.948Z,203.50
2018-12-12T15:40:34.216Z,213.87
2018-12-12T15:43:04.375Z,194.80
2018-12-12T15:45:34.618Z,176.20
2018-12-12T15:48:04.752Z,168.10
2018-12-12T15:50:35.042Z,135.47
2018-12-12T15:53:05.222Z,125.73
2018-12-12T15:55:35.450Z,157.10
2018-12-12T15:58:05.974Z,161.83
2018-12-12T16:00:36.544Z,160.63
2018-12-12T16:03:07.581Z,164.27
2018-12-12T16:05:38.827Z,157.83
2018-12-12T16:08:09.108Z,169.90
2018-12-12T16:10:39.419Z,168.80
2018-12-12T16:13:09.521Z,157.37
2018-12-12T16:15:45.931Z,148.40
2018-12-12T16:18:16.176Z,149.83
2018-12-12T16:20:46.474Z,139.57
2018-12-12T16:23:16.626Z,143.90
2018-12-12T16:25:46.792Z,161.13
2018-12-12T16:28:16.927Z,150.27
2018-12-12T16:30:47.060Z,146.67
2018-12-12T16:33:17.247Z,146.47
2018-12-12T16:35:47.340Z,130.87
2018-12-12T16:38:17.539Z,130.60
2018-12-12T16:40:48.592Z,151.27
2018-12-12T16:43:18.736Z,242.70
2018-12-12T16:45:54.886Z,307.13
2018-12-12T16:48:25.001Z,302.10
2018-12-12T16:50:55.165Z,297.37
2018-12-12T16:53:25.981Z,378.13
2018-12-12T16:55:56.057Z,424.00
2018-12-12T16:58:26.234Z,395.83
2018-12-12T17:00:56.503Z,355.70
2018-12-12T17:03:26.724Z,397.20
2018-12-12T17:05:57.157Z,356.20
2018-12-12T17:08:27.596Z,342.30
2018-12-12T17:10:57.864Z,360.43
2018-12-12T17:13:27.963Z,162.53
2018-12-12T17:15:58.040Z,152.27
2018-12-12T17:18:28.865Z,231.60
2018-12-12T17:20:59.160Z,275.77
2018-12-12T17:23:29.459Z,422.83
2018-12-12T17:25:59.566Z,617.07
2018-12-12T17:28:29.867Z,855.40
2018-12-12T17:31:00.130Z,1184.57
2018-12-12T17:33:30.367Z,1230.93
2018-12-12T17:36:00.479Z,1106.53
2018-12-12T17:38:30.530Z,937.80
2018-12-12T17:41:00.711Z,1001.83
2018-12-12T17:43:30.754Z,236.20
2018-12-12T17:46:01.001Z,211.87
2018-12-12T17:48:32.174Z,301.77
2018-12-12T17:51:02.695Z,235.07
2018-12-12T17:53:33.037Z,289.40
2018-12-12T17:56:03.275Z,255.70
2018-12-12T17:58:33.385Z,236.77
2018-12-12T18:01:03.450Z,227.87
2018-12-12T18:03:36.866Z,247.60
2018-12-12T18:06:23.974Z,424.93
2018-12-12T18:08:54.122Z,140.17
2018-12-12T18:11:26.723Z,112.23
2018-12-12T18:13:57.060Z,114.37
2018-12-12T18:16:29.205Z,113.20
2018-12-12T18:18:59.288Z,114.60
2018-12-12T18:21:29.679Z,116.40
2018-12-12T18:24:02.863Z,155.03
2018-12-12T18:26:33.071Z,244.03
2018-12-12T18:29:03.354Z,393.60
2018-12-12T18:31:44.247Z,434.20
2018-12-12T18:34:34.112Z,418.47
2018-12-12T18:37:04.231Z,267.70
2018-12-12T18:39:34.430Z,198.63
2018-12-12T18:42:08.435Z,266.30
2018-12-12T18:44:44.110Z,275.30
2018-12-12T18:47:14.319Z,231.70
2018-12-12T18:49:44.439Z,234.63
2018-12-12T18:52:21.803Z,177.73
2018-12-12T18:54:52.535Z,145.50
2018-12-12T18:57:24.631Z,136.53
2018-12-12T18:59:54.799Z,131.63
2018-12-12T19:02:25.071Z,173.60
2018-12-12T19:04:55.617Z,323.27
2018-12-12T19:07:25.826Z,131.10
2018-12-12T19:09:56.089Z,113.23
2018-12-12T19:12:26.366Z,108.50
2018-12-12T19:15:04.309Z,92.87
2018-12-12T19:17:34.414Z,101.87
2018-12-12T19:20:05.121Z,100.37
2018-12-12T19:22:35.251Z,101.30
2018-12-12T19:25:05.437Z,102.30
2018-12-12T19:27:36.286Z,95.33
2018-12-12T19:30:06.953Z,91.37
2018-12-12T19:32:37.086Z,88.73
2018-12-12T19:35:08.824Z,87.67
2018-12-12T19:37:38.876Z,165.63
2018-12-12T19:40:10.440Z,381.53
2018-12-12T19:42:40.529Z,291.90
2018-12-12T19:45:10.737Z,655.67
2018-12-12T19:47:40.805Z,293.90
2018-12-12T19:50:10.909Z,167.47
2018-12-12T19:52:40.980Z,152.27
2018-12-12T19:55:11.199Z,113.20
2018-12-12T19:57:41.285Z,100.43
2018-12-12T20:00:12.547Z,97.43
2018-12-12T20:02:43.829Z,116.87
2018-12-12T20:05:13.891Z,126.37
2018-12-12T20:07:43.983Z,116.87
2018-12-12T20:10:14.122Z,106.90
2018-12-12T20:12:44.565Z,110.53
2018-12-12T20:15:20.070Z,108.33
2018-12-12T20:17:50.267Z,118.10
2018-12-12T20:20:20.389Z,124.80
2018-12-12T20:22:50.620Z,121.33
2018-12-12T20:25:20.840Z,118.10
2018-12-12T20:27:50.998Z,108.00
2018-12-12T20:30:21.139Z,111.40
2018-12-12T20:32:51.323Z,129.77
2018-12-12T20:35:21.683Z,174.90
2018-12-12T20:37:51.810Z,112.83
2018-12-12T20:40:22.061Z,214.97
2018-12-12T20:42:52.200Z,173.33
2018-12-12T20:45:22.378Z,137.03
2018-12-12T20:47:55.467Z,137.63
2018-12-12T20:50:25.756Z,135.23
2018-12-12T20:52:55.920Z,138.23
2018-12-12T20:55:26.129Z,137.57
2018-12-12T20:57:56.688Z,130.40
2018-12-12T21:00:26.905Z,116.83
2018-12-12T21:02:57.007Z,93.90
2018-12-12T21:05:27.107Z,87.13
2018-12-12T21:07:57.288Z,87.57
2018-12-12T21:10:29.871Z,92.03
2018-12-12T21:13:00.510Z,90.83
2018-12-12T21:15:30.695Z,85.70
2018-12-12T21:18:00.877Z,79.97
2018-12-12T21:20:30.993Z,99.57
2018-12-12T21:23:01.096Z,88.33
2018-12-12T21:25:32.983Z,88.93
2018-12-12T21:28:03.213Z,98.10
2018-12-12T21:30:33.343Z,98.47
2018-12-12T21:33:03.399Z,105.63
2018-12-12T21:35:33.727Z,118.87
2018-12-12T21:38:04.131Z,120.10
2018-12-12T21:40:34.292Z,137.00
2018-12-12T21:43:04.427Z,135.60
2018-12-12T21:45:35.352Z,149.70
2018-12-12T21:48:05.416Z,143.37
2018-12-12T21:50:35.524Z,125.30
2018-12-12T21:53:05.635Z,118.67
2018-12-12T21:55:35.734Z,88.90
2018-12-12T21:58:05.794Z,111.23
2018-12-12T22:00:36.003Z,104.07
2018-12-12T22:03:06.074Z,96.07
2018-12-12T22:05:36.129Z,99.47
2018-12-12T22:08:06.195Z,99.23
2018-12-12T22:10:36.486Z,95.47
2018-12-12T22:13:07.003Z,83.33
2018-12-12T22:15:37.372Z,85.17
2018-12-12T22:18:07.423Z,98.50
2018-12-12T22:20:37.576Z,93.17
2018-12-12T22:23:07.658Z,94.53
2018-12-12T22:25:37.745Z,117.77
2018-12-12T22:28:07.861Z,116.67
2018-12-12T22:30:37.908Z,137.40
2018-12-12T22:33:07.946Z,128.70
2018-12-12T22:35:38.895Z,125.00
2018-12-12T22:38:09.006Z,115.20
2018-12-12T22:40:39.097Z,110.70
2018-12-12T22:43:09.186Z,108.23
2018-12-12T22:45:40.666Z,103.27
2018-12-12T22:48:10.858Z,110.87
2018-12-12T22:50:40.934Z,104.23
2018-12-12T22:53:10.971Z,96.70
2018-12-12T22:55:41.050Z,101.87
2018-12-12T22:58:11.155Z,101.47
2018-12-12T23:00:43.371Z,99.47
2018-12-12T23:03:15.455Z,102.13
2018-12-12T23:05:45.568Z,98.83
2018-12-12T23:08:15.645Z,106.47
2018-12-12T23:10:45.717Z,109.63
2018-12-12T23:13:15.777Z,99.90
2018-12-12T23:15:45.840Z,107.27
2018-12-12T23:18:15.913Z,95.00
2018-12-12T23:20:46.023Z,94.90
2018-12-12T23:23:16.097Z,104.57
2018-12-12T23:25:46.173Z,94.97
2018-12-12T23:28:16.260Z,97.40
2018-12-12T23:30:46.417Z,101.20
2018-12-12T23:33:16.528Z,88.30
2018-12-12T23:35:46.670Z,94.87
2018-12-12T23:38:16.760Z,96.10
2018-12-12T23:40:46.782Z,93.13
2018-12-12T23:43:16.870Z,104.53
2018-12-12T23:45:46.909Z,101.40
2018-12-12T23:48:16.957Z,99.27
2018-12-12T23:50:47.015Z,90.13
2018-12-12T23:53:17.061Z,103.10
2018-12-12T23:55:47.174Z,93.23
2018-12-12T23:58:17.298Z,93.27
